sensor_id;sensor_type;location;lat;lon;timestamp;P1;durP1;ratioP1;P2;durP2;ratioP2
12165;SDS011;6146;48.128;11.476;2023-07-29T00:00:44;5.17;;;3.80;;
12165;SDS011;6146;48.128;11.476;2023-07-29T00:03:10;4.10;;;3.27;;
12165;SDS011;6146;48.128;11.476;2023-07-29T00:05:39;4.53;;;3.60;;
12165;SDS011;6146;48.128;11.476;2023-07-29T00:08:05;4.20;;;3.80;;
12165;SDS011;6146;48.128;11.476;2023-07-29T00:10:31;3.63;;;3.33;;
12165;SDS011;6146;48.128;11.476;2023-07-29T00:12:57;3.90;;;3.20;;
12165;SDS011;6146;48.128;11.476;2023-07-29T00:15:24;3.27;;;2.97;;
12165;SDS011;6146;48.128;11.476;2023-07-29T00:17:49;4.33;;;3.07;;
12165;SDS011;6146;48.128;11.476;2023-07-29T00:20:15;3.20;;;2.90;;
12165;SDS011;6146;48.128;11.476;2023-07-29T00:22:40;3.27;;;2.90;;
12165;SDS011;6146;48.128;11.476;2023-07-29T00:25:06;3.93;;;2.80;;
12165;SDS011;6146;48.128;11.476;2023-07-29T00:27:32;3.60;;;3.07;;
12165;SDS011;6146;48.128;11.476;2023-07-29T00:29:58;3.37;;;3.07;;
12165;SDS011;6146;48.128;11.476;2023-07-29T00:32:23;4.33;;;2.90;;
12165;SDS011;6146;48.128;11.476;2023-07-29T00:34:50;7.90;;;3.47;;
12165;SDS011;6146;48.128;11.476;2023-07-29T00:37:16;3.00;;;2.70;;
12165;SDS011;6146;48.128;11.476;2023-07-29T00:39:41;3.67;;;2.93;;
12165;SDS011;6146;48.128;11.476;2023-07-29T00:42:07;3.30;;;2.87;;
12165;SDS011;6146;48.128;11.476;2023-07-29T00:44:33;4.23;;;3.20;;
12165;SDS011;6146;48.128;11.476;2023-07-29T00:46:58;3.77;;;2.70;;
12165;SDS011;6146;48.128;11.476;2023-07-29T00:49:27;3.90;;;2.93;;
12165;SDS011;6146;48.128;11.476;2023-07-29T00:51:53;3.40;;;3.10;;
12165;SDS011;6146;48.128;11.476;2023-07-29T00:54:19;4.20;;;2.90;;
12165;SDS011;6146;48.128;11.476;2023-07-29T00:56:44;2.87;;;2.53;;
12165;SDS011;6146;48.128;11.476;2023-07-29T00:59:10;3.33;;;2.83;;
12165;SDS011;6146;48.128;11.476;2023-07-29T01:01:36;3.23;;;2.73;;
12165;SDS011;6146;48.128;11.476;2023-07-29T01:04:02;3.53;;;2.80;;
12165;SDS011;6146;48.128;11.476;2023-07-29T01:14:43;3.17;;;2.87;;
12165;SDS011;6146;48.128;11.476;2023-07-29T01:17:20;3.60;;;2.80;;
12165;SDS011;6146;48.128;11.476;2023-07-29T01:22:28;2.80;;;2.50;;
12165;SDS011;6146;48.128;11.476;2023-07-29T01:24:56;2.73;;;2.20;;
12165;SDS011;6146;48.128;11.476;2023-07-29T01:27:22;3.67;;;2.57;;
12165;SDS011;6146;48.128;11.476;2023-07-29T01:29:48;3.20;;;2.50;;
12165;SDS011;6146;48.128;11.476;2023-07-29T01:32:14;3.63;;;2.67;;
12165;SDS011;6146;48.128;11.476;2023-07-29T01:34:46;4.57;;;2.80;;
12165;SDS011;6146;48.128;11.476;2023-07-29T01:37:19;3.93;;;2.87;;
12165;SDS011;6146;48.128;11.476;2023-07-29T01:39:48;3.10;;;2.70;;
12165;SDS011;6146;48.128;11.476;2023-07-29T01:42:15;3.00;;;2.43;;
12165;SDS011;6146;48.128;11.476;2023-07-29T01:44:41;3.23;;;2.70;;
12165;SDS011;6146;48.128;11.476;2023-07-29T01:47:07;3.37;;;2.87;;
12165;SDS011;6146;48.128;11.476;2023-07-29T01:49:33;3.27;;;2.80;;
12165;SDS011;6146;48.128;11.476;2023-07-29T01:51:59;3.33;;;3.10;;
12165;SDS011;6146;48.128;11.476;2023-07-29T01:54:24;3.30;;;2.77;;
12165;SDS011;6146;48.128;11.476;2023-07-29T01:56:50;3.23;;;2.53;;
12165;SDS011;6146;48.128;11.476;2023-07-29T01:59:16;3.60;;;3.27;;
12165;SDS011;6146;48.128;11.476;2023-07-29T02:01:42;3.10;;;2.80;;
12165;SDS011;6146;48.128;11.476;2023-07-29T02:04:08;3.77;;;2.73;;
12165;SDS011;6146;48.128;11.476;2023-07-29T02:06:33;4.63;;;2.83;;
12165;SDS011;6146;48.128;11.476;2023-07-29T02:08:59;2.97;;;2.67;;
12165;SDS011;6146;48.128;11.476;2023-07-29T02:11:25;3.40;;;3.07;;
12165;SDS011;6146;48.128;11.476;2023-07-29T02:13:53;5.37;;;3.23;;
12165;SDS011;6146;48.128;11.476;2023-07-29T02:16:19;3.37;;;2.80;;
12165;SDS011;6146;48.128;11.476;2023-07-29T02:18:45;3.10;;;2.80;;
12165;SDS011;6146;48.128;11.476;2023-07-29T02:21:11;3.10;;;2.80;;
12165;SDS011;6146;48.128;11.476;2023-07-29T02:23:36;4.07;;;2.53;;
12165;SDS011;6146;48.128;11.476;2023-07-29T02:26:02;3.23;;;2.77;;
12165;SDS011;6146;48.128;11.476;2023-07-29T02:28:27;2.77;;;2.53;;
12165;SDS011;6146;48.128;11.476;2023-07-29T02:31:09;3.40;;;3.00;;
12165;SDS011;6146;48.128;11.476;2023-07-29T02:33:39;3.27;;;2.77;;
12165;SDS011;6146;48.128;11.476;2023-07-29T02:36:04;3.17;;;2.63;;
12165;SDS011;6146;48.128;11.476;2023-07-29T02:38:30;3.27;;;2.97;;
12165;SDS011;6146;48.128;11.476;2023-07-29T02:40:56;3.23;;;2.67;;
12165;SDS011;6146;48.128;11.476;2023-07-29T02:43:21;3.87;;;2.97;;
12165;SDS011;6146;48.128;11.476;2023-07-29T02:45:47;3.30;;;3.00;;
12165;SDS011;6146;48.128;11.476;2023-07-29T02:48:12;3.27;;;2.87;;
12165;SDS011;6146;48.128;11.476;2023-07-29T02:50:38;3.27;;;2.80;;
12165;SDS011;6146;48.128;11.476;2023-07-29T02:53:03;4.37;;;2.60;;
12165;SDS011;6146;48.128;11.476;2023-07-29T02:55:29;4.07;;;2.97;;
12165;SDS011;6146;48.128;11.476;2023-07-29T02:57:54;3.67;;;2.90;;
12165;SDS011;6146;48.128;11.476;2023-07-29T03:00:20;3.30;;;3.00;;
12165;SDS011;6146;48.128;11.476;2023-07-29T03:02:45;3.50;;;3.10;;
12165;SDS011;6146;48.128;11.476;2023-07-29T03:05:11;3.20;;;2.90;;
12165;SDS011;6146;48.128;11.476;2023-07-29T03:07:37;4.43;;;2.83;;
12165;SDS011;6146;48.128;11.476;2023-07-29T03:10:03;2.93;;;2.63;;
12165;SDS011;6146;48.128;11.476;2023-07-29T03:12:29;3.70;;;2.80;;
12165;SDS011;6146;48.128;11.476;2023-07-29T03:14:54;4.73;;;2.97;;
12165;SDS011;6146;48.128;11.476;2023-07-29T03:17:21;3.37;;;3.03;;
12165;SDS011;6146;48.128;11.476;2023-07-29T03:19:46;3.47;;;2.87;;
12165;SDS011;6146;48.128;11.476;2023-07-29T03:22:12;4.50;;;2.90;;
12165;SDS011;6146;48.128;11.476;2023-07-29T03:24:37;3.70;;;2.80;;
12165;SDS011;6146;48.128;11.476;2023-07-29T03:27:03;3.27;;;2.50;;
12165;SDS011;6146;48.128;11.476;2023-07-29T03:29:30;3.07;;;2.50;;
12165;SDS011;6146;48.128;11.476;2023-07-29T03:31:55;3.43;;;2.70;;
12165;SDS011;6146;48.128;11.476;2023-07-29T03:34:21;4.27;;;2.70;;
12165;SDS011;6146;48.128;11.476;2023-07-29T03:36:46;2.70;;;2.50;;
12165;SDS011;6146;48.128;11.476;2023-07-29T03:39:13;3.80;;;2.60;;
12165;SDS011;6146;48.128;11.476;2023-07-29T03:41:39;3.10;;;2.50;;
12165;SDS011;6146;48.128;11.476;2023-07-29T03:44:04;3.37;;;2.33;;
12165;SDS011;6146;48.128;11.476;2023-07-29T03:46:30;2.90;;;2.47;;
12165;SDS011;6146;48.128;11.476;2023-07-29T03:48:56;4.10;;;2.93;;
12165;SDS011;6146;48.128;11.476;2023-07-29T03:51:22;3.60;;;3.10;;
12165;SDS011;6146;48.128;11.476;2023-07-29T03:53:49;2.93;;;2.50;;
12165;SDS011;6146;48.128;11.476;2023-07-29T03:56:15;4.20;;;2.40;;
12165;SDS011;6146;48.128;11.476;2023-07-29T03:58:41;4.63;;;2.50;;
12165;SDS011;6146;48.128;11.476;2023-07-29T04:01:06;2.67;;;2.17;;
12165;SDS011;6146;48.128;11.476;2023-07-29T04:03:33;3.77;;;2.90;;
12165;SDS011;6146;48.128;11.476;2023-07-29T04:05:58;2.97;;;2.60;;
12165;SDS011;6146;48.128;11.476;2023-07-29T04:08:24;2.90;;;2.40;;
12165;SDS011;6146;48.128;11.476;2023-07-29T04:10:50;3.40;;;2.20;;
12165;SDS011;6146;48.128;11.476;2023-07-29T04:13:16;4.23;;;3.83;;
12165;SDS011;6146;48.128;11.476;2023-07-29T04:15:41;3.03;;;2.70;;
12165;SDS011;6146;48.128;11.476;2023-07-29T04:18:07;3.90;;;2.70;;
12165;SDS011;6146;48.128;11.476;2023-07-29T04:20:32;3.53;;;2.40;;
12165;SDS011;6146;48.128;11.476;2023-07-29T04:22:58;2.77;;;2.40;;
12165;SDS011;6146;48.128;11.476;2023-07-29T04:25:24;3.03;;;2.67;;
12165;SDS011;6146;48.128;11.476;2023-07-29T04:27:50;2.77;;;2.20;;
12165;SDS011;6146;48.128;11.476;2023-07-29T04:30:15;5.23;;;2.77;;
12165;SDS011;6146;48.128;11.476;2023-07-29T04:32:41;2.63;;;2.40;;
12165;SDS011;6146;48.128;11.476;2023-07-29T04:35:07;2.83;;;2.53;;
12165;SDS011;6146;48.128;11.476;2023-07-29T04:37:33;2.97;;;2.33;;
12165;SDS011;6146;48.128;11.476;2023-07-29T04:39:59;4.13;;;2.73;;
12165;SDS011;6146;48.128;11.476;2023-07-29T04:42:24;2.77;;;2.57;;
12165;SDS011;6146;48.128;11.476;2023-07-29T04:44:50;4.27;;;2.67;;
12165;SDS011;6146;48.128;11.476;2023-07-29T04:47:15;2.67;;;2.43;;
12165;SDS011;6146;48.128;11.476;2023-07-29T04:49:41;2.53;;;2.30;;
12165;SDS011;6146;48.128;11.476;2023-07-29T04:52:07;2.73;;;2.33;;
12165;SDS011;6146;48.128;11.476;2023-07-29T04:54:32;3.13;;;2.33;;
12165;SDS011;6146;48.128;11.476;2023-07-29T04:56:58;2.43;;;2.23;;
12165;SDS011;6146;48.128;11.476;2023-07-29T04:59:23;3.33;;;2.03;;
12165;SDS011;6146;48.128;11.476;2023-07-29T05:01:49;2.50;;;2.20;;
12165;SDS011;6146;48.128;11.476;2023-07-29T05:04:15;2.53;;;2.07;;
12165;SDS011;6146;48.128;11.476;2023-07-29T05:06:40;2.47;;;2.13;;
12165;SDS011;6146;48.128;11.476;2023-07-29T05:09:13;2.70;;;2.13;;
12165;SDS011;6146;48.128;11.476;2023-07-29T05:11:40;2.67;;;2.27;;
12165;SDS011;6146;48.128;11.476;2023-07-29T05:14:06;2.80;;;2.20;;
12165;SDS011;6146;48.128;11.476;2023-07-29T05:16:31;2.63;;;2.00;;
12165;SDS011;6146;48.128;11.476;2023-07-29T05:18:57;1.97;;;1.80;;
12165;SDS011;6146;48.128;11.476;2023-07-29T05:21:22;2.53;;;2.33;;
12165;SDS011;6146;48.128;11.476;2023-07-29T05:23:48;2.20;;;1.70;;
12165;SDS011;6146;48.128;11.476;2023-07-29T05:26:13;2.27;;;2.07;;
12165;SDS011;6146;48.128;11.476;2023-07-29T05:28:39;2.23;;;2.00;;
12165;SDS011;6146;48.128;11.476;2023-07-29T05:31:04;2.20;;;2.00;;
12165;SDS011;6146;48.128;11.476;2023-07-29T05:33:30;3.07;;;1.80;;
12165;SDS011;6146;48.128;11.476;2023-07-29T05:35:55;2.10;;;1.90;;
12165;SDS011;6146;48.128;11.476;2023-07-29T05:38:21;2.17;;;1.80;;
12165;SDS011;6146;48.128;11.476;2023-07-29T05:40:47;2.73;;;1.80;;
12165;SDS011;6146;48.128;11.476;2023-07-29T05:43:13;2.10;;;1.90;;
12165;SDS011;6146;48.128;11.476;2023-07-29T05:45:39;2.13;;;1.90;;
12165;SDS011;6146;48.128;11.476;2023-07-29T05:48:05;2.40;;;2.20;;
12165;SDS011;6146;48.128;11.476;2023-07-29T05:50:30;2.27;;;2.07;;
12165;SDS011;6146;48.128;11.476;2023-07-29T05:52:56;2.23;;;1.83;;
12165;SDS011;6146;48.128;11.476;2023-07-29T05:55:22;3.27;;;2.30;;
12165;SDS011;6146;48.128;11.476;2023-07-29T05:57:47;2.23;;;2.03;;
12165;SDS011;6146;48.128;11.476;2023-07-29T06:00:13;3.00;;;1.90;;
12165;SDS011;6146;48.128;11.476;2023-07-29T06:02:39;2.17;;;1.67;;
12165;SDS011;6146;48.128;11.476;2023-07-29T06:05:06;4.30;;;2.50;;
12165;SDS011;6146;48.128;11.476;2023-07-29T06:07:32;5.27;;;2.70;;
12165;SDS011;6146;48.128;11.476;2023-07-29T06:09:58;2.53;;;2.13;;
12165;SDS011;6146;48.128;11.476;2023-07-29T06:12:24;2.77;;;1.93;;
12165;SDS011;6146;48.128;11.476;2023-07-29T06:14:50;2.30;;;2.10;;
12165;SDS011;6146;48.128;11.476;2023-07-29T06:17:16;3.77;;;2.83;;
12165;SDS011;6146;48.128;11.476;2023-07-29T06:19:41;2.10;;;1.90;;
12165;SDS011;6146;48.128;11.476;2023-07-29T06:22:07;2.70;;;2.23;;
12165;SDS011;6146;48.128;11.476;2023-07-29T06:24:32;2.33;;;2.00;;
12165;SDS011;6146;48.128;11.476;2023-07-29T06:26:58;2.43;;;2.20;;
12165;SDS011;6146;48.128;11.476;2023-07-29T06:29:23;2.50;;;2.07;;
12165;SDS011;6146;48.128;11.476;2023-07-29T06:31:49;2.97;;;2.00;;
12165;SDS011;6146;48.128;11.476;2023-07-29T06:34:16;2.27;;;1.87;;
12165;SDS011;6146;48.128;11.476;2023-07-29T06:36:42;4.03;;;2.10;;
12165;SDS011;6146;48.128;11.476;2023-07-29T06:39:08;2.60;;;1.53;;
12165;SDS011;6146;48.128;11.476;2023-07-29T06:41:33;2.50;;;2.17;;
12165;SDS011;6146;48.128;11.476;2023-07-29T06:43:59;2.63;;;2.13;;
12165;SDS011;6146;48.128;11.476;2023-07-29T06:46:24;2.50;;;2.10;;
12165;SDS011;6146;48.128;11.476;2023-07-29T06:48:50;2.30;;;2.10;;
12165;SDS011;6146;48.128;11.476;2023-07-29T06:51:16;4.27;;;2.53;;
12165;SDS011;6146;48.128;11.476;2023-07-29T06:53:41;2.70;;;2.20;;
12165;SDS011;6146;48.128;11.476;2023-07-29T06:56:07;3.10;;;2.40;;
12165;SDS011;6146;48.128;11.476;2023-07-29T06:58:34;2.80;;;2.50;;
12165;SDS011;6146;48.128;11.476;2023-07-29T07:00:59;2.87;;;2.30;;
12165;SDS011;6146;48.128;11.476;2023-07-29T07:03:25;3.40;;;2.20;;
12165;SDS011;6146;48.128;11.476;2023-07-29T07:05:51;2.67;;;2.37;;
12165;SDS011;6146;48.128;11.476;2023-07-29T07:08:16;2.60;;;2.40;;
12165;SDS011;6146;48.128;11.476;2023-07-29T07:10:42;4.07;;;2.63;;
12165;SDS011;6146;48.128;11.476;2023-07-29T07:13:07;3.07;;;2.20;;
12165;SDS011;6146;48.128;11.476;2023-07-29T07:15:42;4.40;;;2.90;;
12165;SDS011;6146;48.128;11.476;2023-07-29T07:18:19;4.73;;;2.73;;
12165;SDS011;6146;48.128;11.476;2023-07-29T07:20:48;3.00;;;2.70;;
12165;SDS011;6146;48.128;11.476;2023-07-29T07:23:14;4.20;;;2.40;;
12165;SDS011;6146;48.128;11.476;2023-07-29T07:25:40;4.47;;;3.03;;
12165;SDS011;6146;48.128;11.476;2023-07-29T07:28:07;4.20;;;2.57;;
12165;SDS011;6146;48.128;11.476;2023-07-29T07:30:33;3.17;;;2.47;;
12165;SDS011;6146;48.128;11.476;2023-07-29T07:32:58;3.73;;;2.80;;
12165;SDS011;6146;48.128;11.476;2023-07-29T07:35:24;3.73;;;2.87;;
12165;SDS011;6146;48.128;11.476;2023-07-29T07:37:50;4.47;;;2.87;;
12165;SDS011;6146;48.128;11.476;2023-07-29T07:40:15;3.10;;;2.80;;
12165;SDS011;6146;48.128;11.476;2023-07-29T07:42:41;4.13;;;2.77;;
12165;SDS011;6146;48.128;11.476;2023-07-29T07:45:06;4.27;;;2.80;;
12165;SDS011;6146;48.128;11.476;2023-07-29T07:47:32;3.70;;;3.30;;
12165;SDS011;6146;48.128;11.476;2023-07-29T07:49:57;4.30;;;3.07;;
12165;SDS011;6146;48.128;11.476;2023-07-29T07:52:23;3.10;;;2.70;;
12165;SDS011;6146;48.128;11.476;2023-07-29T07:54:52;3.00;;;2.70;;
12165;SDS011;6146;48.128;11.476;2023-07-29T07:57:19;3.40;;;2.70;;
12165;SDS011;6146;48.128;11.476;2023-07-29T07:59:46;3.03;;;2.77;;
12165;SDS011;6146;48.128;11.476;2023-07-29T08:02:11;2.73;;;2.43;;
12165;SDS011;6146;48.128;11.476;2023-07-29T08:04:38;4.07;;;2.77;;
12165;SDS011;6146;48.128;11.476;2023-07-29T08:07:03;3.57;;;2.63;;
12165;SDS011;6146;48.128;11.476;2023-07-29T08:09:29;4.60;;;2.77;;
12165;SDS011;6146;48.128;11.476;2023-07-29T08:11:55;4.63;;;2.47;;
12165;SDS011;6146;48.128;11.476;2023-07-29T08:14:20;3.50;;;2.57;;
12165;SDS011;6146;48.128;11.476;2023-07-29T08:16:46;6.17;;;2.60;;
12165;SDS011;6146;48.128;11.476;2023-07-29T08:19:11;3.00;;;2.70;;
12165;SDS011;6146;48.128;11.476;2023-07-29T08:21:37;3.07;;;2.77;;
12165;SDS011;6146;48.128;11.476;2023-07-29T08:24:03;2.90;;;2.60;;
12165;SDS011;6146;48.128;11.476;2023-07-29T08:26:28;3.87;;;3.20;;
12165;SDS011;6146;48.128;11.476;2023-07-29T08:28:54;3.10;;;2.80;;
12165;SDS011;6146;48.128;11.476;2023-07-29T08:31:20;2.97;;;2.57;;
12165;SDS011;6146;48.128;11.476;2023-07-29T08:33:45;3.77;;;3.23;;
12165;SDS011;6146;48.128;11.476;2023-07-29T08:36:11;3.10;;;2.77;;
12165;SDS011;6146;48.128;11.476;2023-07-29T08:38:36;3.87;;;3.10;;
12165;SDS011;6146;48.128;11.476;2023-07-29T08:41:04;4.17;;;2.80;;
12165;SDS011;6146;48.128;11.476;2023-07-29T08:43:59;4.07;;;3.03;;
12165;SDS011;6146;48.128;11.476;2023-07-29T08:46:31;5.47;;;3.17;;
12165;SDS011;6146;48.128;11.476;2023-07-29T08:48:58;4.43;;;2.67;;
12165;SDS011;6146;48.128;11.476;2023-07-29T08:51:26;5.20;;;2.80;;
12165;SDS011;6146;48.128;11.476;2023-07-29T08:53:52;3.63;;;2.70;;
12165;SDS011;6146;48.128;11.476;2023-07-29T08:56:18;3.07;;;2.77;;
12165;SDS011;6146;48.128;11.476;2023-07-29T08:58:44;3.07;;;2.77;;
12165;SDS011;6146;48.128;11.476;2023-07-29T09:01:10;4.53;;;2.50;;
12165;SDS011;6146;48.128;11.476;2023-07-29T09:03:36;3.20;;;2.60;;
12165;SDS011;6146;48.128;11.476;2023-07-29T09:06:02;3.50;;;2.27;;
12165;SDS011;6146;48.128;11.476;2023-07-29T09:08:28;2.70;;;2.50;;
12165;SDS011;6146;48.128;11.476;2023-07-29T09:10:54;2.73;;;2.33;;
12165;SDS011;6146;48.128;11.476;2023-07-29T09:13:21;3.17;;;2.70;;
12165;SDS011;6146;48.128;11.476;2023-07-29T09:15:46;2.80;;;2.60;;
12165;SDS011;6146;48.128;11.476;2023-07-29T09:18:16;3.13;;;2.50;;
12165;SDS011;6146;48.128;11.476;2023-07-29T09:20:45;3.10;;;2.70;;
12165;SDS011;6146;48.128;11.476;2023-07-29T09:23:12;2.60;;;2.40;;
12165;SDS011;6146;48.128;11.476;2023-07-29T09:25:38;2.63;;;2.33;;
12165;SDS011;6146;48.128;11.476;2023-07-29T09:28:08;2.53;;;2.30;;
12165;SDS011;6146;48.128;11.476;2023-07-29T09:30:38;2.38;;;2.00;;
12165;SDS011;6146;48.128;11.476;2023-07-29T09:33:04;2.42;;;2.22;;
12165;SDS011;6146;48.128;11.476;2023-07-29T09:35:32;2.67;;;2.22;;
12165;SDS011;6146;48.128;11.476;2023-07-29T09:37:59;2.65;;;2.45;;
12165;SDS011;6146;48.128;11.476;2023-07-29T09:40:24;2.78;;;2.20;;
12165;SDS011;6146;48.128;11.476;2023-07-29T09:42:51;2.50;;;2.30;;
12165;SDS011;6146;48.128;11.476;2023-07-29T09:45:24;2.58;;;2.38;;
12165;SDS011;6146;48.128;11.476;2023-07-29T09:47:51;2.45;;;2.22;;
12165;SDS011;6146;48.128;11.476;2023-07-29T09:50:17;2.72;;;2.35;;
12165;SDS011;6146;48.128;11.476;2023-07-29T09:52:43;3.83;;;2.30;;
12165;SDS011;6146;48.128;11.476;2023-07-29T09:55:12;2.53;;;2.33;;
12165;SDS011;6146;48.128;11.476;2023-07-29T09:57:41;2.45;;;2.25;;
12165;SDS011;6146;48.128;11.476;2023-07-29T10:00:10;3.22;;;2.92;;
12165;SDS011;6146;48.128;11.476;2023-07-29T10:02:37;2.75;;;2.13;;
12165;SDS011;6146;48.128;11.476;2023-07-29T10:05:07;3.45;;;3.15;;
12165;SDS011;6146;48.128;11.476;2023-07-29T10:07:37;3.10;;;2.80;;
12165;SDS011;6146;48.128;11.476;2023-07-29T10:10:05;3.58;;;3.28;;
12165;SDS011;6146;48.128;11.476;2023-07-29T10:12:32;2.97;;;2.67;;
12165;SDS011;6146;48.128;11.476;2023-07-29T10:15:07;2.70;;;2.50;;
12165;SDS011;6146;48.128;11.476;2023-07-29T10:17:34;2.70;;;2.50;;
12165;SDS011;6146;48.128;11.476;2023-07-29T10:20:01;4.15;;;2.95;;
12165;SDS011;6146;48.128;11.476;2023-07-29T10:22:28;3.60;;;3.00;;
12165;SDS011;6146;48.128;11.476;2023-07-29T10:24:59;2.53;;;2.30;;
12165;SDS011;6146;48.128;11.476;2023-07-29T10:27:34;2.63;;;2.42;;
12165;SDS011;6146;48.128;11.476;2023-07-29T10:30:20;4.35;;;2.60;;
12165;SDS011;6146;48.128;11.476;2023-07-29T10:32:46;3.38;;;2.28;;
12165;SDS011;6146;48.128;11.476;2023-07-29T10:35:13;2.40;;;2.20;;
12165;SDS011;6146;48.128;11.476;2023-07-29T10:37:40;2.40;;;2.20;;
12165;SDS011;6146;48.128;11.476;2023-07-29T10:40:07;3.25;;;2.30;;
12165;SDS011;6146;48.128;11.476;2023-07-29T10:42:35;2.88;;;2.67;;
12165;SDS011;6146;48.128;11.476;2023-07-29T10:45:16;2.63;;;2.30;;
12165;SDS011;6146;48.128;11.476;2023-07-29T10:47:44;3.45;;;3.15;;
12165;SDS011;6146;48.128;11.476;2023-07-29T10:50:16;2.90;;;2.63;;
12165;SDS011;6146;48.128;11.476;2023-07-29T10:52:49;3.25;;;2.50;;
12165;SDS011;6146;48.128;11.476;2023-07-29T10:55:29;2.95;;;2.53;;
12165;SDS011;6146;48.128;11.476;2023-07-29T10:58:04;2.75;;;2.47;;
12165;SDS011;6146;48.128;11.476;2023-07-29T11:00:31;2.45;;;2.25;;
12165;SDS011;6146;48.128;11.476;2023-07-29T11:03:01;2.80;;;2.40;;
12165;SDS011;6146;48.128;11.476;2023-07-29T11:05:43;2.97;;;2.10;;
12165;SDS011;6146;48.128;11.476;2023-07-29T11:08:20;2.85;;;2.47;;
12165;SDS011;6146;48.128;11.476;2023-07-29T11:11:06;2.85;;;2.50;;
12165;SDS011;6146;48.128;11.476;2023-07-29T11:13:33;3.10;;;2.78;;
12165;SDS011;6146;48.128;11.476;2023-07-29T11:16:00;2.67;;;2.47;;
12165;SDS011;6146;48.128;11.476;2023-07-29T11:18:27;3.03;;;2.30;;
12165;SDS011;6146;48.128;11.476;2023-07-29T11:20:55;2.22;;;1.60;;
12165;SDS011;6146;48.128;11.476;2023-07-29T11:23:26;3.03;;;1.67;;
12165;SDS011;6146;48.128;11.476;2023-07-29T11:26:00;1.88;;;1.67;;
12165;SDS011;6146;48.128;11.476;2023-07-29T11:28:26;2.97;;;1.90;;
12165;SDS011;6146;48.128;11.476;2023-07-29T11:30:53;1.97;;;1.80;;
12165;SDS011;6146;48.128;11.476;2023-07-29T11:33:20;3.33;;;1.80;;
12165;SDS011;6146;48.128;11.476;2023-07-29T11:35:47;2.17;;;1.97;;
12165;SDS011;6146;48.128;11.476;2023-07-29T11:38:16;2.20;;;2.00;;
12165;SDS011;6146;48.128;11.476;2023-07-29T11:40:58;2.70;;;1.67;;
12165;SDS011;6146;48.128;11.476;2023-07-29T11:43:25;2.47;;;2.00;;
12165;SDS011;6146;48.128;11.476;2023-07-29T11:45:51;2.93;;;2.07;;
12165;SDS011;6146;48.128;11.476;2023-07-29T11:48:18;2.90;;;1.93;;
12165;SDS011;6146;48.128;11.476;2023-07-29T11:50:51;3.03;;;1.80;;
12165;SDS011;6146;48.128;11.476;2023-07-29T11:53:18;2.73;;;1.87;;
12165;SDS011;6146;48.128;11.476;2023-07-29T11:55:44;2.00;;;1.90;;
12165;SDS011;6146;48.128;11.476;2023-07-29T11:58:09;1.92;;;1.83;;
12165;SDS011;6146;48.128;11.476;2023-07-29T12:00:35;2.00;;;1.75;;
12165;SDS011;6146;48.128;11.476;2023-07-29T12:03:02;2.35;;;2.00;;
12165;SDS011;6146;48.128;11.476;2023-07-29T12:05:28;2.25;;;2.05;;
12165;SDS011;6146;48.128;11.476;2023-07-29T12:07:55;2.33;;;1.90;;
12165;SDS011;6146;48.128;11.476;2023-07-29T12:10:20;2.30;;;2.10;;
12165;SDS011;6146;48.128;11.476;2023-07-29T12:12:47;2.45;;;2.25;;
12165;SDS011;6146;48.128;11.476;2023-07-29T12:15:22;2.30;;;2.10;;
12165;SDS011;6146;48.128;11.476;2023-07-29T12:17:55;2.85;;;2.00;;
12165;SDS011;6146;48.128;11.476;2023-07-29T12:20:21;2.50;;;2.30;;
12165;SDS011;6146;48.128;11.476;2023-07-29T12:22:51;2.50;;;2.30;;
12165;SDS011;6146;48.128;11.476;2023-07-29T12:25:31;2.65;;;2.28;;
12165;SDS011;6146;48.128;11.476;2023-07-29T12:27:56;2.38;;;2.15;;
12165;SDS011;6146;48.128;11.476;2023-07-29T12:30:26;2.97;;;2.17;;
12165;SDS011;6146;48.128;11.476;2023-07-29T12:32:52;2.55;;;2.28;;
12165;SDS011;6146;48.128;11.476;2023-07-29T12:35:18;2.53;;;2.33;;
12165;SDS011;6146;48.128;11.476;2023-07-29T12:37:44;2.15;;;1.98;;
12165;SDS011;6146;48.128;11.476;2023-07-29T12:40:22;2.33;;;2.13;;
12165;SDS011;6146;48.128;11.476;2023-07-29T12:42:50;2.58;;;2.20;;
12165;SDS011;6146;48.128;11.476;2023-07-29T12:45:19;3.53;;;2.30;;
12165;SDS011;6146;48.128;11.476;2023-07-29T12:47:46;2.50;;;2.30;;
12165;SDS011;6146;48.128;11.476;2023-07-29T12:50:11;3.40;;;2.80;;
12165;SDS011;6146;48.128;11.476;2023-07-29T12:52:37;3.33;;;2.60;;
12165;SDS011;6146;48.128;11.476;2023-07-29T12:55:03;3.90;;;2.70;;
12165;SDS011;6146;48.128;11.476;2023-07-29T12:57:29;4.27;;;3.17;;
12165;SDS011;6146;48.128;11.476;2023-07-29T12:59:55;3.03;;;2.60;;
12165;SDS011;6146;48.128;11.476;2023-07-29T13:02:20;3.00;;;2.60;;
12165;SDS011;6146;48.128;11.476;2023-07-29T13:04:46;4.67;;;2.73;;
12165;SDS011;6146;48.128;11.476;2023-07-29T13:07:11;4.13;;;3.30;;
12165;SDS011;6146;48.128;11.476;2023-07-29T13:09:37;5.07;;;3.10;;
12165;SDS011;6146;48.128;11.476;2023-07-29T13:12:02;4.23;;;3.70;;
12165;SDS011;6146;48.128;11.476;2023-07-29T13:14:28;6.37;;;4.20;;
12165;SDS011;6146;48.128;11.476;2023-07-29T13:16:54;4.27;;;3.40;;
12165;SDS011;6146;48.128;11.476;2023-07-29T13:19:19;4.33;;;3.50;;
12165;SDS011;6146;48.128;11.476;2023-07-29T13:21:45;4.50;;;3.40;;
12165;SDS011;6146;48.128;11.476;2023-07-29T13:24:10;4.53;;;3.30;;
12165;SDS011;6146;48.128;11.476;2023-07-29T13:26:36;3.70;;;3.00;;
12165;SDS011;6146;48.128;11.476;2023-07-29T13:29:01;4.90;;;3.00;;
12165;SDS011;6146;48.128;11.476;2023-07-29T13:31:29;6.10;;;3.63;;
12165;SDS011;6146;48.128;11.476;2023-07-29T13:33:55;3.67;;;3.33;;
12165;SDS011;6146;48.128;11.476;2023-07-29T13:36:22;6.53;;;3.23;;
12165;SDS011;6146;48.128;11.476;2023-07-29T13:38:47;4.80;;;3.20;;
12165;SDS011;6146;48.128;11.476;2023-07-29T13:41:13;4.17;;;3.47;;
12165;SDS011;6146;48.128;11.476;2023-07-29T13:43:38;4.07;;;3.60;;
12165;SDS011;6146;48.128;11.476;2023-07-29T13:46:04;3.53;;;3.20;;
12165;SDS011;6146;48.128;11.476;2023-07-29T13:48:29;4.10;;;3.50;;
12165;SDS011;6146;48.128;11.476;2023-07-29T13:50:55;3.93;;;3.53;;
12165;SDS011;6146;48.128;11.476;2023-07-29T13:53:20;4.17;;;3.53;;
12165;SDS011;6146;48.128;11.476;2023-07-29T13:55:46;3.40;;;3.10;;
12165;SDS011;6146;48.128;11.476;2023-07-29T13:58:12;4.43;;;3.47;;
12165;SDS011;6146;48.128;11.476;2023-07-29T14:00:37;3.27;;;2.93;;
12165;SDS011;6146;48.128;11.476;2023-07-29T14:03:03;3.70;;;3.10;;
12165;SDS011;6146;48.128;11.476;2023-07-29T14:05:29;3.77;;;3.43;;
12165;SDS011;6146;48.128;11.476;2023-07-29T14:07:54;3.63;;;2.97;;
12165;SDS011;6146;48.128;11.476;2023-07-29T14:10:20;4.33;;;3.07;;
12165;SDS011;6146;48.128;11.476;2023-07-29T14:12:45;3.13;;;2.80;;
12165;SDS011;6146;48.128;11.476;2023-07-29T14:15:11;3.27;;;2.83;;
12165;SDS011;6146;48.128;11.476;2023-07-29T14:17:36;3.90;;;2.83;;
12165;SDS011;6146;48.128;11.476;2023-07-29T14:20:02;4.27;;;2.90;;
12165;SDS011;6146;48.128;11.476;2023-07-29T14:22:29;3.97;;;3.20;;
12165;SDS011;6146;48.128;11.476;2023-07-29T14:24:55;4.23;;;3.40;;
12165;SDS011;6146;48.128;11.476;2023-07-29T14:27:20;2.60;;;2.27;;
12165;SDS011;6146;48.128;11.476;2023-07-29T14:29:46;3.20;;;2.77;;
12165;SDS011;6146;48.128;11.476;2023-07-29T14:32:11;3.30;;;2.97;;
12165;SDS011;6146;48.128;11.476;2023-07-29T14:34:37;4.57;;;3.10;;
12165;SDS011;6146;48.128;11.476;2023-07-29T14:37:03;3.30;;;3.00;;
12165;SDS011;6146;48.128;11.476;2023-07-29T14:39:29;4.83;;;3.47;;
12165;SDS011;6146;48.128;11.476;2023-07-29T14:41:54;4.70;;;3.57;;
12165;SDS011;6146;48.128;11.476;2023-07-29T14:44:20;4.13;;;3.47;;
12165;SDS011;6146;48.128;11.476;2023-07-29T14:46:45;5.97;;;4.40;;
12165;SDS011;6146;48.128;11.476;2023-07-29T14:49:11;3.83;;;3.53;;
12165;SDS011;6146;48.128;11.476;2023-07-29T14:51:37;4.73;;;3.60;;
12165;SDS011;6146;48.128;11.476;2023-07-29T14:54:03;4.23;;;3.83;;
12165;SDS011;6146;48.128;11.476;2023-07-29T14:56:28;5.50;;;3.87;;